AAR152 RKSI-RJSS
Flight info
| Callsign | AAR152 |
|---|---|
| Flight time | N/A |
| Altitude | 37000 |
| Route | EGOBA2C EGOBA Y697 LANAT Y51 SAMON Y517 ZUWAI Y515 LANCE |
| Aircraft | A321/M-SDE3FGHIRWY/LB1 |
Departure
| Time | 2026-05-05 03:22 |
|---|---|
| Airport | Incheon International Airport (RKSI) |
Arrival
| Time | N/A |
|---|---|
| Airport | Sendai Airport (RJSS) |
| Time | Latitude | Longitude | Altitude | Speed | Heading |
|---|---|---|---|---|---|
| 2026-05-05 02:37 | 37.46739 | 126.43890 | 33 ft | 0 kts | 35° |
| 2026-05-05 03:07 | 37.46736 | 126.43887 | 32 ft | 3 kts | 35° |
| 2026-05-05 03:07 | 37.46717 | 126.43871 | 30 ft | 3 kts | 35° |
| 2026-05-05 03:08 | 37.46699 | 126.43855 | 31 ft | 3 kts | 35° |
| 2026-05-05 03:08 | 37.46680 | 126.43838 | 30 ft | 3 kts | 35° |
| 2026-05-05 03:08 | 37.46665 | 126.43824 | 31 ft | 3 kts | 49° |
| 2026-05-05 03:08 | 37.46653 | 126.43801 | 32 ft | 3 kts | 72° |
| 2026-05-05 03:09 | 37.46649 | 126.43774 | 32 ft | 3 kts | 83° |
| 2026-05-05 03:09 | 37.46645 | 126.43746 | 31 ft | 3 kts | 63° |
| 2026-05-05 03:09 | 37.46642 | 126.43740 | 32 ft | 0 kts | 54° |
| 2026-05-05 03:11 | 37.46643 | 126.43742 | 31 ft | 1 kts | 54° |
| 2026-05-05 03:12 | 37.46649 | 126.43752 | 30 ft | 3 kts | 54° |
| 2026-05-05 03:12 | 37.46658 | 126.43791 | 32 ft | 6 kts | 93° |
| 2026-05-05 03:12 | 37.46629 | 126.43839 | 32 ft | 8 kts | 144° |
| 2026-05-05 03:12 | 37.46574 | 126.43889 | 32 ft | 10 kts | 144° |
| 2026-05-05 03:13 | 37.46535 | 126.43924 | 33 ft | 6 kts | 144° |
| 2026-05-05 03:13 | 37.46496 | 126.43959 | 32 ft | 8 kts | 144° |
| 2026-05-05 03:13 | 37.46449 | 126.44001 | 32 ft | 9 kts | 144° |
| 2026-05-05 03:13 | 37.46394 | 126.44051 | 32 ft | 11 kts | 144° |
| 2026-05-05 03:14 | 37.46350 | 126.44123 | 32 ft | 11 kts | 90° |
| 2026-05-05 03:14 | 37.46392 | 126.44209 | 32 ft | 12 kts | 54° |
| 2026-05-05 03:14 | 37.46443 | 126.44299 | 32 ft | 13 kts | 54° |
| 2026-05-05 03:14 | 37.46499 | 126.44399 | 32 ft | 15 kts | 54° |
| 2026-05-05 03:15 | 37.46555 | 126.44509 | 32 ft | 12 kts | 65° |
| 2026-05-05 03:15 | 37.46607 | 126.44591 | 32 ft | 12 kts | 25° |
| 2026-05-05 03:15 | 37.46681 | 126.44548 | 32 ft | 13 kts | 324° |
| 2026-05-05 03:15 | 37.46757 | 126.44479 | 31 ft | 14 kts | 324° |
| 2026-05-05 03:16 | 37.46841 | 126.44405 | 31 ft | 15 kts | 325° |
| 2026-05-05 03:16 | 37.46930 | 126.44327 | 31 ft | 16 kts | 325° |
| 2026-05-05 03:16 | 37.47028 | 126.44240 | 30 ft | 18 kts | 325° |
| 2026-05-05 03:16 | 37.47130 | 126.44150 | 32 ft | 19 kts | 324° |
| 2026-05-05 03:17 | 37.47239 | 126.44052 | 32 ft | 20 kts | 324° |
| 2026-05-05 03:17 | 37.47351 | 126.43953 | 32 ft | 20 kts | 325° |
| 2026-05-05 03:17 | 37.47469 | 126.43848 | 32 ft | 21 kts | 324° |
| 2026-05-05 03:17 | 37.47590 | 126.43740 | 31 ft | 20 kts | 326° |
| 2026-05-05 03:18 | 37.47708 | 126.43637 | 32 ft | 21 kts | 325° |
| 2026-05-05 03:18 | 37.47827 | 126.43531 | 32 ft | 20 kts | 325° |
| 2026-05-05 03:18 | 37.47909 | 126.43459 | 31 ft | 12 kts | 324° |
| 2026-05-05 03:18 | 37.47968 | 126.43405 | 32 ft | 11 kts | 323° |
| 2026-05-05 03:19 | 37.48076 | 126.43489 | 32 ft | 8 kts | 55° |
| 2026-05-05 03:19 | 37.48096 | 126.43524 | 32 ft | 2 kts | 54° |
| 2026-05-05 03:19 | 37.48107 | 126.43544 | 32 ft | 4 kts | 54° |
| 2026-05-05 03:20 | 37.48131 | 126.43587 | 32 ft | 7 kts | 57° |
| 2026-05-05 03:20 | 37.48140 | 126.43658 | 32 ft | 10 kts | 104° |
| 2026-05-05 03:20 | 37.48102 | 126.43707 | 30 ft | 3 kts | 144° |
| 2026-05-05 03:20 | 37.48099 | 126.43709 | 31 ft | 0 kts | 144° |
| 2026-05-05 03:21 | 37.48098 | 126.43710 | 31 ft | 2 kts | 144° |
| 2026-05-05 03:21 | 37.47991 | 126.43806 | 33 ft | 52 kts | 144° |
| 2026-05-05 03:21 | 37.47493 | 126.44248 | 34 ft | 122 kts | 144° |
| 2026-05-05 03:22 | 37.46641 | 126.45005 | 36 ft | 176 kts | 146° |
| 2026-05-05 03:22 | 37.45623 | 126.45910 | 671 ft | 178 kts | 145° |
| 2026-05-05 03:22 | 37.44768 | 126.47037 | 1504 ft | 181 kts | 132° |
| 2026-05-05 03:22 | 37.43982 | 126.48356 | 1984 ft | 195 kts | 133° |
| 2026-05-05 03:23 | 37.43116 | 126.49720 | 2450 ft | 205 kts | 135° |
| 2026-05-05 03:23 | 37.42139 | 126.51163 | 2695 ft | 229 kts | 135° |
| 2026-05-05 03:23 | 37.41044 | 126.52755 | 3109 ft | 250 kts | 135° |
| 2026-05-05 03:23 | 37.39897 | 126.54441 | 3817 ft | 257 kts | 134° |
| 2026-05-05 03:24 | 37.38729 | 126.56177 | 4579 ft | 263 kts | 134° |
| 2026-05-05 03:24 | 37.37508 | 126.57918 | 5288 ft | 267 kts | 142° |
| 2026-05-05 03:24 | 37.35914 | 126.59089 | 5998 ft | 267 kts | 163° |
| 2026-05-05 03:24 | 37.34141 | 126.59863 | 6742 ft | 272 kts | 164° |
| 2026-05-05 03:25 | 37.32337 | 126.60638 | 7474 ft | 276 kts | 163° |
| 2026-05-05 03:25 | 37.30512 | 126.61434 | 8223 ft | 280 kts | 160° |
| 2026-05-05 03:25 | 37.28865 | 126.62767 | 8975 ft | 287 kts | 136° |
| 2026-05-05 03:25 | 37.27738 | 126.64854 | 9728 ft | 294 kts | 113° |
| 2026-05-05 03:26 | 37.27349 | 126.67388 | 10378 ft | 304 kts | 91° |
| 2026-05-05 03:26 | 37.27440 | 126.70143 | 10571 ft | 328 kts | 88° |
| 2026-05-05 03:26 | 37.27605 | 126.73094 | 10852 ft | 346 kts | 86° |
| 2026-05-05 03:26 | 37.27794 | 126.76132 | 11452 ft | 352 kts | 87° |
| 2026-05-05 03:27 | 37.27982 | 126.79213 | 12157 ft | 355 kts | 87° |
| 2026-05-05 03:27 | 37.28163 | 126.82311 | 12882 ft | 357 kts | 88° |
| 2026-05-05 03:27 | 37.28337 | 126.85432 | 13616 ft | 359 kts | 88° |
| 2026-05-05 03:27 | 37.28506 | 126.88575 | 14292 ft | 362 kts | 88° |
| 2026-05-05 03:28 | 37.28713 | 126.91737 | 14926 ft | 365 kts | 86° |
| 2026-05-05 03:28 | 37.28984 | 126.94916 | 15557 ft | 368 kts | 85° |
| 2026-05-05 03:28 | 37.29291 | 126.98118 | 16198 ft | 371 kts | 83° |
| 2026-05-05 03:28 | 37.29611 | 127.01358 | 16788 ft | 375 kts | 85° |
| 2026-05-05 03:29 | 37.29928 | 127.04619 | 17412 ft | 378 kts | 85° |
| 2026-05-05 03:29 | 37.30239 | 127.07912 | 18042 ft | 381 kts | 83° |
| 2026-05-05 03:29 | 37.30563 | 127.11230 | 18632 ft | 385 kts | 82° |
| 2026-05-05 03:29 | 37.31212 | 127.14500 | 19170 ft | 389 kts | 72° |
| 2026-05-05 03:30 | 37.32067 | 127.17738 | 19719 ft | 392 kts | 72° |
| 2026-05-05 03:30 | 37.32994 | 127.20902 | 20255 ft | 395 kts | 65° |
| 2026-05-05 03:30 | 37.34377 | 127.23900 | 20788 ft | 398 kts | 54° |
| 2026-05-05 03:30 | 37.36195 | 127.26534 | 21338 ft | 402 kts | 43° |
| 2026-05-05 03:31 | 37.38386 | 127.28737 | 21887 ft | 405 kts | 35° |
| 2026-05-05 03:31 | 37.40696 | 127.30785 | 22434 ft | 407 kts | 34° |
| 2026-05-05 03:31 | 37.43013 | 127.32840 | 22980 ft | 410 kts | 34° |
| 2026-05-05 03:31 | 37.45287 | 127.35037 | 23496 ft | 413 kts | 42° |
| 2026-05-05 03:32 | 37.47222 | 127.37727 | 23955 ft | 417 kts | 53° |
| 2026-05-05 03:32 | 37.48729 | 127.40863 | 24363 ft | 420 kts | 64° |
| 2026-05-05 03:32 | 37.49745 | 127.44319 | 24784 ft | 424 kts | 75° |
| 2026-05-05 03:32 | 37.50359 | 127.47963 | 25168 ft | 427 kts | 78° |
| 2026-05-05 03:33 | 37.50946 | 127.51650 | 25545 ft | 430 kts | 78° |
| 2026-05-05 03:33 | 37.51537 | 127.55349 | 25960 ft | 432 kts | 78° |
| 2026-05-05 03:33 | 37.52133 | 127.59077 | 26352 ft | 435 kts | 78° |
| 2026-05-05 03:33 | 37.52732 | 127.62826 | 26748 ft | 437 kts | 78° |
| 2026-05-05 03:34 | 37.53334 | 127.66591 | 27152 ft | 440 kts | 78° |
| 2026-05-05 03:34 | 37.53942 | 127.70377 | 27528 ft | 443 kts | 77° |
| 2026-05-05 03:34 | 37.54553 | 127.74192 | 27934 ft | 445 kts | 78° |
| 2026-05-05 03:34 | 37.55160 | 127.78023 | 28295 ft | 448 kts | 78° |
| 2026-05-05 03:35 | 37.55768 | 127.81887 | 28650 ft | 451 kts | 78° |
| 2026-05-05 03:35 | 37.56374 | 127.85769 | 29032 ft | 453 kts | 78° |
| 2026-05-05 03:35 | 37.56983 | 127.89678 | 29351 ft | 456 kts | 77° |
| 2026-05-05 03:35 | 37.57596 | 127.93606 | 29708 ft | 458 kts | 78° |
| 2026-05-05 03:36 | 37.58214 | 127.97554 | 30073 ft | 461 kts | 78° |
| 2026-05-05 03:36 | 37.58832 | 128.01509 | 30336 ft | 464 kts | 78° |
| 2026-05-05 03:36 | 37.59460 | 128.05522 | 30645 ft | 466 kts | 78° |
| 2026-05-05 03:36 | 37.60087 | 128.09554 | 30926 ft | 469 kts | 78° |
| 2026-05-05 03:37 | 37.60715 | 128.13597 | 31294 ft | 470 kts | 78° |
| 2026-05-05 03:37 | 37.61341 | 128.17633 | 31722 ft | 469 kts | 78° |
| 2026-05-05 03:37 | 37.61965 | 128.21671 | 32037 ft | 471 kts | 79° |
| 2026-05-05 03:37 | 37.62591 | 128.25729 | 32398 ft | 471 kts | 79° |
| 2026-05-05 03:38 | 37.63215 | 128.29785 | 32783 ft | 471 kts | 79° |
| 2026-05-05 03:38 | 37.63833 | 128.33834 | 33047 ft | 473 kts | 79° |
| 2026-05-05 03:38 | 37.64450 | 128.37907 | 33468 ft | 472 kts | 79° |
| 2026-05-05 03:38 | 37.65057 | 128.41920 | 33797 ft | 473 kts | 79° |
| 2026-05-05 03:39 | 37.65679 | 128.46045 | 34148 ft | 472 kts | 79° |
| 2026-05-05 03:39 | 37.66293 | 128.50105 | 34478 ft | 471 kts | 79° |
| 2026-05-05 03:39 | 37.66908 | 128.54176 | 34697 ft | 473 kts | 79° |
| 2026-05-05 03:39 | 37.67526 | 128.58264 | 34957 ft | 474 kts | 79° |
| 2026-05-05 03:40 | 37.68142 | 128.62356 | 35176 ft | 476 kts | 79° |
| 2026-05-05 03:40 | 37.68747 | 128.66472 | 35357 ft | 478 kts | 82° |
| 2026-05-05 03:40 | 37.68970 | 128.70639 | 35680 ft | 475 kts | 92° |
| 2026-05-05 03:40 | 37.68660 | 128.74784 | 35954 ft | 474 kts | 102° |
| 2026-05-05 03:41 | 37.67849 | 128.78803 | 36187 ft | 472 kts | 111° |
| 2026-05-05 03:41 | 37.66586 | 128.82561 | 36377 ft | 471 kts | 120° |
| 2026-05-05 03:41 | 37.64938 | 128.86125 | 36591 ft | 471 kts | 124° |
| 2026-05-05 03:41 | 37.63244 | 128.89660 | 36793 ft | 472 kts | 124° |
| 2026-05-05 03:42 | 37.61544 | 128.93211 | 36965 ft | 473 kts | 124° |
| 2026-05-05 03:42 | 37.59838 | 128.96772 | 37036 ft | 475 kts | 124° |
| 2026-05-05 03:42 | 37.56410 | 129.03911 | 37040 ft | 476 kts | 124° |
| 2026-05-05 03:43 | 37.52975 | 129.11039 | 37039 ft | 476 kts | 124° |
| 2026-05-05 03:43 | 37.49531 | 129.18170 | 37037 ft | 477 kts | 124° |
| 2026-05-05 03:44 | 37.46052 | 129.25352 | 37042 ft | 477 kts | 124° |
| 2026-05-05 03:44 | 37.42593 | 129.32489 | 37049 ft | 478 kts | 124° |
| 2026-05-05 03:45 | 37.39151 | 129.39578 | 37041 ft | 479 kts | 125° |
| 2026-05-05 03:45 | 37.35675 | 129.46725 | 37048 ft | 479 kts | 125° |
| 2026-05-05 03:46 | 37.32191 | 129.53872 | 37065 ft | 480 kts | 125° |
| 2026-05-05 03:46 | 37.28700 | 129.61023 | 37068 ft | 480 kts | 125° |
| 2026-05-05 03:47 | 37.25200 | 129.68176 | 37078 ft | 481 kts | 125° |
| 2026-05-05 03:47 | 37.21694 | 129.75322 | 37081 ft | 481 kts | 125° |
| 2026-05-05 03:48 | 37.18173 | 129.82471 | 37081 ft | 482 kts | 126° |
| 2026-05-05 03:48 | 37.14645 | 129.89622 | 37096 ft | 482 kts | 126° |
| 2026-05-05 03:49 | 37.11714 | 129.95563 | 37101 ft | 483 kts | 126° |
| 2026-05-05 03:49 | 37.08179 | 130.02716 | 37106 ft | 483 kts | 126° |